createdAt,value
2017-03-09T00:00:07.078Z,0
2017-03-09T00:01:16.831Z,0
2017-03-09T00:02:26.625Z,0
2017-03-09T00:03:36.382Z,0
2017-03-09T00:04:46.148Z,0
2017-03-09T00:05:56.356Z,0
2017-03-09T00:07:06.566Z,0
2017-03-09T00:08:16.398Z,0
2017-03-09T00:09:26.596Z,0
2017-03-09T00:10:36.364Z,0
2017-03-09T00:11:45.687Z,0
2017-03-09T00:12:55.916Z,0
2017-03-09T00:14:06.621Z,0
2017-03-09T00:15:17.274Z,0
2017-03-09T00:16:27.035Z,0
2017-03-09T00:17:36.813Z,0
2017-03-09T00:18:46.577Z,0
2017-03-09T00:19:56.383Z,0
2017-03-09T00:21:06.572Z,0
2017-03-09T00:22:16.344Z,0
2017-03-09T00:23:26.567Z,0
2017-03-09T00:24:36.338Z,0
2017-03-09T00:25:46.585Z,0
2017-03-09T00:26:56.354Z,0
2017-03-09T00:28:05.686Z,0
2017-03-09T00:29:15.432Z,0
2017-03-09T00:30:25.210Z,0
2017-03-09T00:31:35.011Z,0
2017-03-09T00:32:45.224Z,0
2017-03-09T00:33:54.993Z,0
2017-03-09T00:35:04.767Z,0
2017-03-09T00:36:14.983Z,0
2017-03-09T00:37:24.345Z,0
2017-03-09T00:38:33.670Z,0
2017-03-09T00:39:43.443Z,0
2017-03-09T00:40:53.228Z,0
2017-03-09T00:42:03.434Z,0
2017-03-09T00:43:13.259Z,0
2017-03-09T00:44:23.464Z,0
2017-03-09T00:45:33.240Z,0
2017-03-09T00:46:43.874Z,0
2017-03-09T00:47:53.659Z,0
2017-03-09T00:49:03.913Z,0
2017-03-09T00:50:13.665Z,0
2017-03-09T00:51:23.934Z,0
2017-03-09T00:52:34.580Z,0
2017-03-09T00:53:44.329Z,0
2017-03-09T00:54:54.585Z,0
2017-03-09T00:56:04.803Z,0
2017-03-09T00:57:14.573Z,0
2017-03-09T00:58:24.362Z,0
2017-03-09T00:59:34.111Z,0
2017-03-09T01:00:44.396Z,0
2017-03-09T01:01:54.157Z,0
2017-03-09T01:03:03.943Z,0
2017-03-09T01:04:13.711Z,0
2017-03-09T01:05:23.938Z,0
2017-03-09T01:06:33.746Z,0
2017-03-09T01:07:43.507Z,0
2017-03-09T01:08:53.720Z,0
2017-03-09T01:10:03.046Z,0
2017-03-09T01:11:12.846Z,0
2017-03-09T01:12:22.648Z,0
2017-03-09T01:13:32.865Z,0
2017-03-09T01:14:42.626Z,0
2017-03-09T01:15:52.390Z,0
2017-03-09T01:17:03.032Z,0
2017-03-09T01:18:12.836Z,0
2017-03-09T01:19:23.919Z,0
2017-03-09T01:20:34.577Z,0
2017-03-09T01:21:44.774Z,0
2017-03-09T01:22:54.559Z,0
2017-03-09T01:24:04.378Z,0
2017-03-09T01:25:14.132Z,0
2017-03-09T01:26:23.469Z,0
2017-03-09T01:27:33.695Z,0
2017-03-09T01:28:43.444Z,0
2017-03-09T01:29:53.262Z,0
2017-03-09T01:31:03.483Z,0
2017-03-09T01:32:13.240Z,0
2017-03-09T01:33:22.991Z,0
2017-03-09T01:34:32.770Z,0
2017-03-09T01:35:42.147Z,0
2017-03-09T01:36:51.903Z,0
2017-03-09T01:38:02.115Z,0
2017-03-09T01:39:11.439Z,0
2017-03-09T01:40:20.768Z,0
2017-03-09T01:41:30.585Z,0
2017-03-09T01:42:40.362Z,0
2017-03-09T01:43:50.121Z,0
2017-03-09T01:44:59.892Z,0
2017-03-09T01:46:09.650Z,0
2017-03-09T01:47:19.899Z,0
2017-03-09T01:48:29.229Z,0
2017-03-09T01:49:39.006Z,0
2017-03-09T01:50:48.814Z,0
2017-03-09T01:51:58.152Z,0
2017-03-09T01:53:08.037Z,0
2017-03-09T01:54:17.810Z,0
2017-03-09T01:55:27.604Z,0
2017-03-09T01:56:37.369Z,0
2017-03-09T01:57:46.674Z,0
2017-03-09T01:58:56.915Z,0
2017-03-09T02:00:06.687Z,0
2017-03-09T02:01:16.476Z,0
2017-03-09T02:02:26.683Z,0
2017-03-09T02:03:37.344Z,0
2017-03-09T02:04:47.612Z,0
2017-03-09T02:05:56.942Z,0
2017-03-09T02:07:06.716Z,0
2017-03-09T02:08:16.905Z,0
2017-03-09T02:09:26.698Z,0
2017-03-09T02:10:36.495Z,0
2017-03-09T02:11:46.708Z,0
2017-03-09T02:12:56.022Z,0
2017-03-09T02:14:05.339Z,0
2017-03-09T02:15:15.092Z,0
2017-03-09T02:16:25.337Z,0
2017-03-09T02:17:35.539Z,0
2017-03-09T02:18:45.291Z,0
2017-03-09T02:19:55.036Z,0
2017-03-09T02:21:04.364Z,0
2017-03-09T02:22:14.160Z,0
2017-03-09T02:23:23.908Z,0
2017-03-09T02:24:34.564Z,0
2017-03-09T02:25:44.758Z,0
2017-03-09T02:26:54.515Z,0
2017-03-09T02:28:04.328Z,0
2017-03-09T02:29:14.096Z,0
2017-03-09T02:30:24.770Z,0
2017-03-09T02:31:34.963Z,0
2017-03-09T02:32:45.626Z,0
2017-03-09T02:33:55.000Z,0
2017-03-09T02:35:04.763Z,0
2017-03-09T02:36:14.964Z,0
2017-03-09T02:37:25.170Z,0
2017-03-09T02:38:34.478Z,0
2017-03-09T02:39:43.837Z,0
2017-03-09T02:40:54.476Z,0
2017-03-09T02:42:05.134Z,0
2017-03-09T02:43:14.887Z,0
2017-03-09T02:44:25.526Z,0
2017-03-09T02:45:35.350Z,0
2017-03-09T02:46:45.124Z,0
2017-03-09T02:47:54.885Z,0
2017-03-09T02:49:04.635Z,0
2017-03-09T02:50:14.384Z,0
2017-03-09T02:51:24.635Z,0
2017-03-09T02:52:33.977Z,0
2017-03-09T02:53:43.731Z,0
2017-03-09T02:54:53.508Z,0
2017-03-09T02:56:03.278Z,0
2017-03-09T02:57:13.079Z,0
2017-03-09T02:58:23.274Z,0
2017-03-09T02:59:33.057Z,0
2017-03-09T03:00:43.682Z,0
2017-03-09T03:01:52.991Z,0
2017-03-09T03:03:03.260Z,0
2017-03-09T03:04:13.034Z,0
2017-03-09T03:05:22.815Z,0
2017-03-09T03:06:32.568Z,0
2017-03-09T03:07:42.797Z,0
2017-03-09T03:08:52.713Z,0
2017-03-09T03:10:02.954Z,0
2017-03-09T03:11:13.152Z,0
2017-03-09T03:12:22.914Z,0
2017-03-09T03:13:32.691Z,0
2017-03-09T03:14:42.948Z,0
2017-03-09T03:15:52.701Z,0
2017-03-09T03:17:02.011Z,0
2017-03-09T03:18:11.332Z,0
2017-03-09T03:19:21.530Z,0
2017-03-09T03:20:30.991Z,0
2017-03-09T03:21:41.190Z,0
2017-03-09T03:22:51.825Z,0
2017-03-09T03:24:01.138Z,0
2017-03-09T03:25:10.894Z,0
2017-03-09T03:26:21.131Z,0
2017-03-09T03:27:30.876Z,0
2017-03-09T03:28:40.686Z,0
2017-03-09T03:29:51.334Z,0
2017-03-09T03:31:01.076Z,0
2017-03-09T03:32:10.886Z,0
2017-03-09T03:33:21.098Z,0
2017-03-09T03:34:31.296Z,0
2017-03-09T03:35:41.038Z,0
2017-03-09T03:36:51.244Z,0
2017-03-09T03:38:01.487Z,0
2017-03-09T03:39:11.682Z,0
2017-03-09T03:40:21.894Z,0
2017-03-09T03:41:32.956Z,0
2017-03-09T03:42:42.726Z,0
2017-03-09T03:43:52.201Z,0
2017-03-09T03:45:02.864Z,0
2017-03-09T03:46:12.172Z,0
2017-03-09T03:47:23.225Z,0
2017-03-09T03:48:33.422Z,0
2017-03-09T03:49:43.668Z,0
2017-03-09T03:50:53.856Z,0
2017-03-09T03:52:03.618Z,0
2017-03-09T03:53:13.376Z,0
2017-03-09T03:54:22.688Z,0
2017-03-09T03:55:33.401Z,0
2017-03-09T03:56:43.160Z,0
2017-03-09T03:57:53.376Z,0
2017-03-09T03:59:03.582Z,0
2017-03-09T04:00:13.776Z,0
2017-03-09T04:01:23.156Z,0
2017-03-09T04:02:32.494Z,0
2017-03-09T04:03:42.235Z,0
2017-03-09T04:04:52.420Z,0
2017-03-09T04:06:02.177Z,0
2017-03-09T04:07:11.999Z,0
2017-03-09T04:08:21.320Z,0
2017-03-09T04:09:31.093Z,0
2017-03-09T04:10:41.278Z,0
2017-03-09T04:11:51.047Z,0
2017-03-09T04:13:00.448Z,0
2017-03-09T04:14:11.092Z,0
2017-03-09T04:15:20.410Z,0
2017-03-09T04:16:30.176Z,0
2017-03-09T04:17:39.916Z,0
2017-03-09T04:18:49.282Z,0
2017-03-09T04:19:59.012Z,0
2017-03-09T04:21:08.797Z,0
2017-03-09T04:22:18.584Z,0
2017-03-09T04:23:28.346Z,0
2017-03-09T04:24:38.576Z,0
2017-03-09T04:25:48.338Z,0
2017-03-09T04:26:58.519Z,0
2017-03-09T04:28:07.852Z,0
2017-03-09T04:29:17.201Z,0
2017-03-09T04:30:26.998Z,0
2017-03-09T04:31:36.307Z,0
2017-03-09T04:32:46.100Z,0
2017-03-09T04:33:55.860Z,0
2017-03-09T04:35:06.495Z,0
2017-03-09T04:36:15.879Z,0
2017-03-09T04:37:26.500Z,0
2017-03-09T04:38:36.262Z,0
2017-03-09T04:39:46.887Z,0
2017-03-09T04:40:57.521Z,0
2017-03-09T04:42:07.318Z,0
2017-03-09T04:43:17.518Z,0
2017-03-09T04:44:27.720Z,0
2017-03-09T04:45:37.065Z,0
2017-03-09T04:46:46.822Z,0
2017-03-09T04:47:56.624Z,0
2017-03-09T04:49:05.969Z,0
2017-03-09T04:50:15.758Z,0
2017-03-09T04:51:25.994Z,0
2017-03-09T04:52:35.772Z,0
2017-03-09T04:53:46.029Z,0
2017-03-09T04:54:56.659Z,0
2017-03-09T04:56:06.874Z,0
2017-03-09T04:57:17.060Z,0
2017-03-09T04:58:26.394Z,0
2017-03-09T04:59:35.854Z,0
2017-03-09T05:00:45.208Z,0
2017-03-09T05:01:54.984Z,0
2017-03-09T05:03:04.740Z,0
2017-03-09T05:04:14.512Z,0
2017-03-09T05:05:24.331Z,0
2017-03-09T05:06:34.094Z,0
2017-03-09T05:07:43.410Z,0
2017-03-09T05:08:54.493Z,0
2017-03-09T05:10:05.121Z,0
2017-03-09T05:11:16.243Z,4
2017-03-09T05:12:26.028Z,4
2017-03-09T05:13:36.221Z,0
2017-03-09T05:14:45.535Z,4
2017-03-09T05:15:56.168Z,4
2017-03-09T05:17:05.960Z,4
2017-03-09T05:18:16.155Z,0
2017-03-09T05:19:26.800Z,0
2017-03-09T05:20:36.985Z,4
2017-03-09T05:21:46.305Z,4
2017-03-09T05:22:56.567Z,4
2017-03-09T05:24:05.900Z,4
2017-03-09T05:25:16.113Z,4
2017-03-09T05:26:25.898Z,8
2017-03-09T05:27:35.242Z,4
2017-03-09T05:28:45.933Z,8
2017-03-09T05:29:56.138Z,8
2017-03-09T05:31:05.451Z,12
2017-03-09T05:32:15.182Z,12
2017-03-09T05:33:24.940Z,12
2017-03-09T05:34:34.511Z,12
2017-03-09T05:35:44.282Z,16
2017-03-09T05:36:54.897Z,20
2017-03-09T05:38:05.546Z,24
2017-03-09T05:39:15.303Z,28
2017-03-09T05:40:25.136Z,36
2017-03-09T05:41:34.881Z,40
2017-03-09T05:42:44.639Z,48
2017-03-09T05:43:53.970Z,56
2017-03-09T05:45:03.732Z,64
2017-03-09T05:46:14.871Z,72
2017-03-09T05:47:24.627Z,84
2017-03-09T05:48:34.392Z,96
2017-03-09T05:49:44.590Z,108
2017-03-09T05:50:54.355Z,116
2017-03-09T05:52:04.167Z,124
2017-03-09T05:53:14.812Z,140
2017-03-09T05:54:25.467Z,148
2017-03-09T05:55:35.211Z,164
2017-03-09T05:56:46.304Z,184
2017-03-09T05:57:56.985Z,212
2017-03-09T05:59:08.073Z,240
2017-03-09T06:00:17.392Z,264
2017-03-09T06:01:27.149Z,288
2017-03-09T06:02:36.467Z,312
2017-03-09T06:03:45.844Z,336
2017-03-09T06:04:55.597Z,348
2017-03-09T06:06:05.377Z,360
2017-03-09T06:07:15.588Z,380
2017-03-09T06:08:25.349Z,392
2017-03-09T06:09:35.169Z,408
2017-03-09T06:10:45.812Z,424
2017-03-09T06:11:55.999Z,440
2017-03-09T06:13:06.629Z,456
2017-03-09T06:14:17.703Z,472
2017-03-09T06:15:27.520Z,496
2017-03-09T06:16:37.284Z,520
2017-03-09T06:17:47.475Z,536
2017-03-09T06:18:57.658Z,548
2017-03-09T06:20:07.853Z,552
2017-03-09T06:21:17.229Z,556
2017-03-09T06:22:27.415Z,572
2017-03-09T06:23:37.184Z,588
2017-03-09T06:24:46.942Z,612
2017-03-09T06:25:57.163Z,648
2017-03-09T06:27:07.486Z,688
2017-03-09T06:28:17.241Z,728
2017-03-09T06:29:27.866Z,764
2017-03-09T06:30:37.170Z,780
2017-03-09T06:31:47.369Z,792
2017-03-09T06:32:56.730Z,812
2017-03-09T06:34:07.358Z,832
2017-03-09T06:35:16.668Z,844
2017-03-09T06:36:26.417Z,836
2017-03-09T06:37:36.186Z,856
2017-03-09T06:38:45.550Z,908
2017-03-09T06:39:55.795Z,984
2017-03-09T06:41:05.986Z,1072
2017-03-09T06:42:15.298Z,1132
2017-03-09T06:43:25.503Z,1160
2017-03-09T06:44:34.881Z,1164
2017-03-09T06:45:44.635Z,1148
2017-03-09T06:46:54.408Z,1124
2017-03-09T06:48:04.173Z,1100
2017-03-09T06:49:13.905Z,1084
2017-03-09T06:50:24.575Z,1088
2017-03-09T06:51:34.359Z,1140
2017-03-09T06:52:45.026Z,1232
2017-03-09T06:53:54.354Z,1320
2017-03-09T06:55:05.433Z,1408
2017-03-09T06:56:15.233Z,1464
2017-03-09T06:57:24.555Z,1476
2017-03-09T06:58:34.772Z,1456
2017-03-09T06:59:44.533Z,1456
2017-03-09T07:00:54.738Z,1472
2017-03-09T07:02:04.554Z,1480
2017-03-09T07:03:15.175Z,1480
2017-03-09T07:04:25.364Z,1480
2017-03-09T07:05:35.551Z,1496
2017-03-09T07:06:44.903Z,1520
2017-03-09T07:07:55.597Z,1548
2017-03-09T07:09:05.350Z,1588
2017-03-09T07:10:15.114Z,1640
2017-03-09T07:11:25.748Z,1716
2017-03-09T07:12:35.498Z,1816
2017-03-09T07:13:45.747Z,1888
2017-03-09T07:14:55.502Z,1916
2017-03-09T07:16:06.592Z,1908
2017-03-09T07:17:16.807Z,1864
2017-03-09T07:18:26.128Z,1828
2017-03-09T07:19:35.939Z,1800
2017-03-09T07:20:46.134Z,1772
2017-03-09T07:21:55.880Z,1748
2017-03-09T07:23:05.633Z,1764
2017-03-09T07:24:15.406Z,1804
2017-03-09T07:25:26.103Z,1864
2017-03-09T07:26:35.432Z,1928
2017-03-09T07:27:45.220Z,1964
2017-03-09T07:28:54.994Z,1992
2017-03-09T07:30:04.759Z,2044
2017-03-09T07:31:14.589Z,2108
2017-03-09T07:32:24.337Z,2160
2017-03-09T07:33:34.527Z,2212
2017-03-09T07:34:44.284Z,2304
2017-03-09T07:35:54.048Z,2380
2017-03-09T07:37:03.875Z,2420
2017-03-09T07:38:14.071Z,2416
2017-03-09T07:39:23.825Z,2412
2017-03-09T07:40:33.590Z,2456
2017-03-09T07:41:42.914Z,2532
2017-03-09T07:42:53.169Z,2644
2017-03-09T07:44:02.485Z,2756
2017-03-09T07:45:12.242Z,2764
2017-03-09T07:46:22.011Z,2756
2017-03-09T07:47:31.765Z,2740
2017-03-09T07:48:41.582Z,2764
2017-03-09T07:49:51.332Z,2804
2017-03-09T07:51:01.093Z,2792
2017-03-09T07:52:10.844Z,2740
2017-03-09T07:53:21.921Z,2708
2017-03-09T07:54:31.716Z,2744
2017-03-09T07:55:41.912Z,2828
2017-03-09T07:56:51.683Z,2924
2017-03-09T07:58:01.437Z,3008
2017-03-09T07:59:10.765Z,3048
2017-03-09T08:00:20.573Z,3044
2017-03-09T08:01:30.358Z,3016
2017-03-09T08:02:39.707Z,2992
2017-03-09T08:03:49.882Z,2948
2017-03-09T08:05:00.075Z,2896
2017-03-09T08:06:09.908Z,2856
2017-03-09T08:07:19.682Z,2828
2017-03-09T08:08:29.011Z,2808
2017-03-09T08:09:38.779Z,2800
2017-03-09T08:10:48.985Z,2804
2017-03-09T08:11:58.786Z,2808
2017-03-09T08:13:08.562Z,2836
2017-03-09T08:14:18.776Z,2864
2017-03-09T08:15:28.088Z,2896
2017-03-09T08:16:38.317Z,2900
2017-03-09T08:17:49.444Z,2912
2017-03-09T08:18:58.789Z,2940
2017-03-09T08:20:08.545Z,2964
2017-03-09T08:21:19.192Z,2996
2017-03-09T08:22:28.521Z,3044
2017-03-09T08:23:38.450Z,3096
2017-03-09T08:24:47.809Z,3204
2017-03-09T08:25:58.011Z,3340
2017-03-09T08:27:08.206Z,3432
2017-03-09T08:28:18.423Z,3464
2017-03-09T08:29:28.216Z,3412
2017-03-09T08:30:37.541Z,3376
2017-03-09T08:31:46.858Z,3300
2017-03-09T08:32:57.499Z,3208
2017-03-09T08:34:07.719Z,3124
2017-03-09T08:35:17.974Z,3088
2017-03-09T08:36:28.219Z,3108
2017-03-09T08:39:55.827Z,3228
2017-03-09T08:41:05.199Z,3196
2017-03-09T08:42:15.385Z,3088
2017-03-09T08:43:25.185Z,2968
2017-03-09T08:44:35.814Z,2876
2017-03-09T08:45:46.003Z,2820
2017-03-09T08:46:55.821Z,2824
2017-03-09T08:48:06.033Z,2820
2017-03-09T08:49:16.216Z,2868
2017-03-09T08:50:25.541Z,2920
2017-03-09T08:51:35.734Z,3000
2017-03-09T08:52:46.014Z,3088
2017-03-09T08:53:57.541Z,3228
2017-03-09T08:55:07.734Z,3308
2017-03-09T08:56:18.387Z,3376
2017-03-09T08:57:28.575Z,3412
2017-03-09T08:58:38.857Z,3412
2017-03-09T08:59:48.618Z,3400
2017-03-09T09:00:59.238Z,3368
2017-03-09T09:02:08.981Z,3276
2017-03-09T09:03:19.173Z,3196
2017-03-09T09:04:29.404Z,3188
2017-03-09T09:05:39.652Z,3212
2017-03-09T09:06:50.306Z,3276
2017-03-09T09:08:00.495Z,3456
2017-03-09T09:09:10.276Z,3780
2017-03-09T09:10:20.073Z,3972
2017-03-09T09:11:29.843Z,4148
2017-03-09T09:12:39.618Z,4040
2017-03-09T09:13:49.832Z,4048
2017-03-09T09:15:00.038Z,3752
2017-03-09T09:16:09.838Z,3496
2017-03-09T09:17:19.609Z,3780
2017-03-09T09:18:30.261Z,3672
2017-03-09T09:19:40.463Z,3608
2017-03-09T09:20:50.213Z,3940
2017-03-09T09:21:59.587Z,4328
2017-03-09T09:23:09.773Z,4980
2017-03-09T09:24:19.540Z,4528
2017-03-09T09:25:28.861Z,4852
2017-03-09T09:26:38.210Z,5296
2017-03-09T09:27:48.028Z,5164
2017-03-09T09:28:57.789Z,4932
2017-03-09T09:30:07.562Z,4856
2017-03-09T09:31:17.331Z,4828
2017-03-09T09:32:26.660Z,4936
2017-03-09T09:33:36.166Z,5088
2017-03-09T09:34:46.371Z,5156
2017-03-09T09:35:56.132Z,5108
2017-03-09T09:37:05.897Z,5164
2017-03-09T09:38:16.550Z,5432
2017-03-09T09:39:26.820Z,5568
2017-03-09T09:40:36.596Z,5632
2017-03-09T09:41:45.921Z,6100
2017-03-09T09:42:55.277Z,6308
2017-03-09T09:44:05.059Z,5880
2017-03-09T09:45:15.301Z,5544
2017-03-09T09:46:24.615Z,5588
2017-03-09T09:47:34.382Z,5600
2017-03-09T09:48:44.608Z,5624
2017-03-09T09:49:54.357Z,5828
2017-03-09T09:51:03.710Z,6056
2017-03-09T09:52:13.929Z,6004
2017-03-09T09:53:23.006Z,5784
2017-03-09T09:54:32.795Z,5712
2017-03-09T09:55:42.112Z,6016
2017-03-09T09:56:51.513Z,5800
2017-03-09T09:58:00.861Z,5960
2017-03-09T09:59:11.061Z,5896
2017-03-09T10:00:21.712Z,7384
2017-03-09T10:01:31.054Z,5688
2017-03-09T10:02:40.867Z,5216
2017-03-09T10:03:50.663Z,5388
2017-03-09T10:05:00.868Z,5864
2017-03-09T10:06:11.503Z,6048
2017-03-09T10:07:21.738Z,6372
2017-03-09T10:08:31.592Z,5580
2017-03-09T10:09:40.922Z,5256
2017-03-09T10:10:50.684Z,5292
2017-03-09T10:12:00.895Z,5252
2017-03-09T10:13:11.109Z,5040
2017-03-09T10:14:20.918Z,5084
2017-03-09T10:15:30.256Z,5128
2017-03-09T10:16:39.573Z,4916
2017-03-09T10:17:49.326Z,4848
2017-03-09T10:18:58.645Z,4880
2017-03-09T10:20:08.025Z,5156
2017-03-09T10:21:18.218Z,5632
2017-03-09T10:22:28.415Z,6152
2017-03-09T10:23:38.204Z,6520
2017-03-09T10:24:48.422Z,6688
2017-03-09T10:25:58.243Z,6884
2017-03-09T10:27:07.987Z,7056
2017-03-09T10:28:18.197Z,7384
2017-03-09T10:29:27.975Z,7460
2017-03-09T10:30:38.188Z,7376
2017-03-09T10:31:47.561Z,7080
2017-03-09T10:32:57.313Z,6756
2017-03-09T10:34:06.644Z,6680
2017-03-09T10:35:16.436Z,6860
2017-03-09T10:36:26.226Z,7120
2017-03-09T10:37:35.585Z,7256
2017-03-09T10:38:45.370Z,7020
2017-03-09T10:39:55.581Z,6700
2017-03-09T10:41:04.885Z,6588
2017-03-09T10:42:15.090Z,6692
2017-03-09T10:43:25.797Z,6552
2017-03-09T10:44:35.549Z,6516
2017-03-09T10:45:44.886Z,6696
2017-03-09T10:46:54.660Z,6696
2017-03-09T10:48:04.848Z,6604
2017-03-09T10:49:14.679Z,6272
2017-03-09T10:50:24.924Z,6236
2017-03-09T10:51:34.700Z,6164
2017-03-09T10:52:44.897Z,6228
2017-03-09T10:53:55.996Z,6500
2017-03-09T10:55:05.821Z,6544
2017-03-09T10:56:16.034Z,6640
2017-03-09T10:57:26.683Z,6628
2017-03-09T10:58:36.004Z,6576
2017-03-09T10:59:46.202Z,6504
2017-03-09T11:00:56.015Z,6624
2017-03-09T11:02:05.340Z,6816
2017-03-09T11:03:14.661Z,6968
2017-03-09T11:04:24.415Z,6892
2017-03-09T11:05:34.644Z,7140
2017-03-09T11:06:44.489Z,7216
2017-03-09T11:07:54.706Z,7176
2017-03-09T11:09:04.467Z,6760
2017-03-09T11:10:13.820Z,6628
2017-03-09T11:11:23.162Z,6440
2017-03-09T11:12:33.005Z,6044
2017-03-09T11:13:42.316Z,5652
2017-03-09T11:14:51.641Z,5372
2017-03-09T11:16:00.954Z,5220
2017-03-09T11:17:10.304Z,5232
2017-03-09T11:18:20.529Z,5944
2017-03-09T11:19:31.190Z,6284
2017-03-09T11:20:41.416Z,6120
2017-03-09T11:21:52.029Z,6668
2017-03-09T11:23:01.345Z,5980
2017-03-09T11:24:11.199Z,5512
2017-03-09T11:25:21.418Z,5812
2017-03-09T11:26:31.195Z,5900
2017-03-09T11:27:41.417Z,5580
2017-03-09T11:28:52.068Z,5288
2017-03-09T11:30:01.877Z,5156
2017-03-09T11:31:11.202Z,5360
2017-03-09T11:32:20.969Z,5392
2017-03-09T11:33:31.632Z,5100
2017-03-09T11:34:42.270Z,4800
2017-03-09T11:35:52.078Z,4876
2017-03-09T11:37:02.266Z,4760
2017-03-09T11:38:11.615Z,4228
2017-03-09T11:39:21.822Z,4108
2017-03-09T11:40:31.607Z,5184
2017-03-09T11:41:41.532Z,7272
2017-03-09T11:42:51.333Z,4880
2017-03-09T11:44:01.085Z,3448
2017-03-09T11:45:11.743Z,3472
2017-03-09T11:46:22.809Z,3664
2017-03-09T11:47:32.625Z,3500
2017-03-09T11:48:42.836Z,3424
2017-03-09T11:49:53.456Z,3808
2017-03-09T11:51:03.630Z,3900
2017-03-09T11:52:13.819Z,3364
2017-03-09T11:53:23.171Z,3204
2017-03-09T11:54:32.922Z,3344
2017-03-09T11:55:43.134Z,3336
2017-03-09T11:56:53.387Z,3208
2017-03-09T11:58:03.169Z,3080
2017-03-09T11:59:12.741Z,3160
2017-03-09T12:00:22.931Z,3652
2017-03-09T12:01:32.714Z,3804
2017-03-09T12:02:42.922Z,3552
2017-03-09T12:03:52.254Z,3284
2017-03-09T12:05:02.505Z,3780
2017-03-09T12:06:13.141Z,3872
2017-03-09T12:07:22.445Z,3712
2017-03-09T12:08:33.094Z,4212
2017-03-09T12:09:43.297Z,4628
2017-03-09T12:10:53.098Z,4576
2017-03-09T12:12:03.319Z,4692
2017-03-09T12:13:13.068Z,4976
2017-03-09T12:14:22.820Z,5308
2017-03-09T12:15:32.582Z,5820
2017-03-09T12:16:41.967Z,5968
2017-03-09T12:17:51.728Z,5492
2017-03-09T12:19:02.354Z,4692
2017-03-09T12:20:12.110Z,4168
2017-03-09T12:21:22.313Z,4196
2017-03-09T12:22:32.120Z,4360
2017-03-09T12:23:42.318Z,5168
2017-03-09T12:24:52.519Z,4324
2017-03-09T12:26:02.741Z,4036
2017-03-09T12:27:12.954Z,4208
2017-03-09T12:28:22.760Z,4212
2017-03-09T12:29:32.547Z,4120
2017-03-09T12:30:42.294Z,4212
2017-03-09T12:31:52.065Z,5172
2017-03-09T12:33:03.136Z,5468
2017-03-09T12:34:13.392Z,5120
2017-03-09T12:35:23.577Z,4628
2017-03-09T12:36:33.775Z,4468
2017-03-09T12:37:43.973Z,4516
2017-03-09T12:38:53.289Z,5196
2017-03-09T12:40:03.979Z,5576
2017-03-09T12:41:13.732Z,5288
2017-03-09T12:42:23.065Z,5140
2017-03-09T12:43:33.290Z,4592
2017-03-09T12:44:43.500Z,4208
2017-03-09T12:45:53.761Z,3136
2017-03-09T12:47:03.991Z,2252
2017-03-09T12:48:13.743Z,1872
2017-03-09T12:49:23.501Z,1876
2017-03-09T12:50:34.137Z,2196
2017-03-09T12:51:44.407Z,2736
2017-03-09T12:52:54.218Z,3052
2017-03-09T12:54:04.425Z,3280
2017-03-09T12:55:14.190Z,3288
2017-03-09T12:56:23.499Z,2996
2017-03-09T12:57:33.325Z,2584
2017-03-09T12:58:43.110Z,2416
2017-03-09T12:59:53.764Z,2796
2017-03-09T13:01:03.968Z,4080
2017-03-09T13:02:14.206Z,5692
2017-03-09T13:03:24.059Z,6460
2017-03-09T13:04:33.812Z,6024
2017-03-09T13:05:43.584Z,4780
2017-03-09T13:06:53.346Z,3644
2017-03-09T13:08:03.103Z,1680
2017-03-09T13:09:13.793Z,1340
2017-03-09T13:10:23.552Z,1040
2017-03-09T13:11:34.201Z,1200
2017-03-09T13:12:43.525Z,2356
2017-03-09T13:13:52.847Z,2332
2017-03-09T13:15:02.662Z,2224
2017-03-09T13:16:12.879Z,2052
2017-03-09T13:17:22.627Z,1928
2017-03-09T13:18:32.385Z,2024
2017-03-09T13:19:42.149Z,1788
2017-03-09T13:20:52.384Z,1472
2017-03-09T13:22:01.696Z,1308
2017-03-09T13:23:11.478Z,1180
2017-03-09T13:24:21.668Z,996
2017-03-09T13:25:31.452Z,808
2017-03-09T13:26:41.270Z,672
2017-03-09T13:27:50.611Z,624
2017-03-09T13:28:59.959Z,660
2017-03-09T13:30:09.725Z,740
2017-03-09T13:31:19.485Z,976
2017-03-09T13:32:30.172Z,1232
2017-03-09T13:33:39.931Z,1300
2017-03-09T13:34:50.154Z,1436
2017-03-09T13:35:59.905Z,1740
2017-03-09T13:37:10.147Z,2044
2017-03-09T13:38:20.548Z,2088
2017-03-09T13:39:30.753Z,1880
2017-03-09T13:40:40.503Z,1444
2017-03-09T13:41:49.817Z,912
2017-03-09T13:42:59.578Z,608
2017-03-09T13:44:09.379Z,456
2017-03-09T13:45:18.716Z,376
2017-03-09T13:46:28.038Z,380
2017-03-09T13:47:37.344Z,404
2017-03-09T13:48:47.110Z,392
2017-03-09T13:49:57.365Z,360
2017-03-09T13:51:07.569Z,332
2017-03-09T13:52:17.783Z,344
2017-03-09T13:53:27.548Z,400
2017-03-09T13:54:37.328Z,436
2017-03-09T13:55:47.125Z,392
2017-03-09T13:56:56.871Z,360
2017-03-09T13:58:06.237Z,364
2017-03-09T13:59:16.878Z,372
2017-03-09T14:00:26.638Z,400
2017-03-09T14:01:36.480Z,392
2017-03-09T14:02:46.672Z,428
2017-03-09T14:03:56.448Z,656
2017-03-09T14:05:06.203Z,944
2017-03-09T14:06:16.420Z,2132
2017-03-09T14:07:25.806Z,4216
2017-03-09T14:08:35.135Z,5856
2017-03-09T14:09:44.912Z,6392
2017-03-09T14:10:54.228Z,5936
2017-03-09T14:12:03.986Z,5616
2017-03-09T14:13:13.800Z,5888
2017-03-09T14:14:23.108Z,5872
2017-03-09T14:15:33.310Z,5868
2017-03-09T14:16:42.650Z,5548
2017-03-09T14:17:52.872Z,4436
2017-03-09T14:19:02.246Z,4624
2017-03-09T14:20:12.070Z,4768
2017-03-09T14:21:21.443Z,3520
2017-03-09T14:22:31.197Z,2424
2017-03-09T14:23:41.390Z,2416
2017-03-09T14:24:52.170Z,2588
2017-03-09T14:26:02.379Z,2660
2017-03-09T14:27:13.034Z,2612
2017-03-09T14:28:22.378Z,4116
2017-03-09T14:29:32.163Z,3524
2017-03-09T14:30:42.417Z,1856
2017-03-09T14:31:52.193Z,1200
2017-03-09T14:33:01.947Z,1496
2017-03-09T14:34:11.720Z,2192
2017-03-09T14:35:21.941Z,1888
2017-03-09T14:36:31.363Z,1372
2017-03-09T14:37:41.127Z,1180
2017-03-09T14:38:51.368Z,1220
2017-03-09T14:40:00.685Z,1184
2017-03-09T14:41:10.419Z,1292
2017-03-09T14:42:20.247Z,1340
2017-03-09T14:43:29.580Z,1592
2017-03-09T14:44:39.347Z,2368
2017-03-09T14:45:49.094Z,2536
2017-03-09T14:47:00.161Z,2656
2017-03-09T14:48:09.981Z,1884
2017-03-09T14:49:20.256Z,1712
2017-03-09T14:50:30.457Z,1464
2017-03-09T14:51:40.214Z,1584
2017-03-09T14:52:50.407Z,1388
2017-03-09T14:54:01.256Z,1124
2017-03-09T14:55:10.588Z,1420
2017-03-09T14:56:20.767Z,1300
2017-03-09T14:57:30.975Z,1156
2017-03-09T14:58:41.201Z,1424
2017-03-09T14:59:50.763Z,1412
2017-03-09T15:01:00.517Z,1436
2017-03-09T15:02:10.273Z,1576
2017-03-09T15:03:20.052Z,1828
2017-03-09T15:04:30.275Z,2116
2017-03-09T15:05:40.527Z,1660
2017-03-09T15:06:51.146Z,1428
2017-03-09T15:08:00.931Z,1404
2017-03-09T15:09:11.136Z,1308
2017-03-09T15:10:20.909Z,1384
2017-03-09T15:11:30.707Z,1648
2017-03-09T15:12:40.035Z,1756
2017-03-09T15:13:49.805Z,2216
2017-03-09T15:14:59.565Z,1768
2017-03-09T15:16:08.927Z,1436
2017-03-09T15:17:18.740Z,916
2017-03-09T15:18:28.501Z,964
2017-03-09T15:19:38.267Z,1636
2017-03-09T15:20:48.036Z,1392
2017-03-09T15:21:57.355Z,812
2017-03-09T15:23:07.174Z,672
2017-03-09T15:24:16.923Z,732
2017-03-09T15:25:26.272Z,860
2017-03-09T15:26:36.049Z,1488
2017-03-09T15:27:45.394Z,1208
2017-03-09T15:28:55.261Z,1308
2017-03-09T15:30:05.049Z,1264
2017-03-09T15:31:15.258Z,1128
2017-03-09T15:32:24.586Z,1288
2017-03-09T15:33:34.784Z,1996
2017-03-09T15:34:44.598Z,2912
2017-03-09T15:35:54.792Z,3132
2017-03-09T15:37:04.175Z,3100
2017-03-09T15:38:14.081Z,3472
2017-03-09T15:39:24.730Z,1984
2017-03-09T15:40:35.396Z,1500
2017-03-09T15:41:46.031Z,1188
2017-03-09T15:42:55.845Z,1344
2017-03-09T15:44:05.615Z,1616
2017-03-09T15:45:15.392Z,1520
2017-03-09T15:46:25.951Z,1364
2017-03-09T15:47:36.293Z,1624
2017-03-09T15:48:47.660Z,1500
2017-03-09T15:49:57.421Z,1296
2017-03-09T15:51:09.065Z,1300
2017-03-09T15:52:21.986Z,1236
2017-03-09T15:53:34.339Z,1264
2017-03-09T15:54:45.328Z,1500
2017-03-09T15:55:55.889Z,1440
2017-03-09T15:57:08.159Z,1464
2017-03-09T15:58:21.200Z,1356
2017-03-09T15:59:33.121Z,848
2017-03-09T16:00:47.526Z,676
2017-03-09T16:02:01.412Z,908
2017-03-09T16:03:12.980Z,856
2017-03-09T16:04:26.562Z,1440
2017-03-09T16:05:37.680Z,1508
2017-03-09T16:06:49.064Z,1388
2017-03-09T16:08:02.143Z,1288
2017-03-09T16:09:15.235Z,1384
2017-03-09T16:10:28.820Z,1080